createdAt,value
2017-09-02T20:17:18.877Z,7.90
2017-09-02T20:19:45.186Z,7.90
2017-09-02T20:22:11.579Z,7.80
2017-09-02T20:24:38.393Z,7.70
2017-09-02T20:27:04.705Z,7.80
2017-09-02T20:29:31.018Z,7.80
2017-09-02T20:31:57.498Z,7.70
2017-09-02T20:34:23.970Z,7.60
2017-09-02T20:36:50.301Z,7.60
2017-09-02T20:39:16.609Z,7.50
2017-09-02T20:41:42.983Z,7.50
2017-09-02T20:44:09.319Z,7.50
2017-09-02T20:46:35.701Z,7.50
2017-09-02T20:49:02.020Z,7.50
2017-09-02T20:51:28.363Z,7.40
2017-09-02T20:53:54.763Z,7.50
2017-09-02T20:56:21.057Z,7.40
2017-09-02T20:58:47.413Z,7.40
2017-09-02T21:01:13.743Z,7.40
2017-09-02T21:03:40.239Z,7.30
2017-09-02T21:06:06.894Z,7.20
2017-09-02T21:08:33.174Z,7.10
2017-09-02T21:11:00.404Z,7.00
2017-09-02T21:13:27.136Z,6.90
2017-09-02T21:15:54.191Z,6.90
2017-09-02T21:18:21.368Z,6.90
2017-09-02T21:20:47.633Z,6.90
2017-09-02T21:23:13.970Z,6.90
2017-09-02T21:25:40.251Z,6.90
2017-09-02T21:28:06.485Z,6.90
2017-09-02T21:30:32.885Z,6.90
2017-09-02T21:32:59.196Z,6.80
2017-09-02T21:35:25.638Z,6.70
2017-09-02T21:37:52.062Z,6.50
2017-09-02T21:40:18.390Z,6.30
2017-09-02T21:42:44.823Z,6.30
2017-09-02T21:45:11.048Z,6.20
2017-09-02T21:47:37.705Z,6.20
2017-09-02T21:50:04.050Z,6.10
2017-09-02T21:52:30.397Z,6.10
2017-09-02T21:54:56.821Z,6.30
2017-09-02T21:57:23.347Z,6.30
2017-09-02T21:59:49.835Z,6.30
2017-09-02T22:02:16.082Z,6.30
2017-09-02T22:04:42.362Z,6.30
2017-09-02T22:07:08.651Z,6.30
2017-09-02T22:09:34.921Z,6.30
2017-09-02T22:12:01.878Z,6.50
2017-09-02T22:14:28.351Z,6.40
2017-09-02T22:16:54.709Z,6.40
2017-09-02T22:19:21.018Z,6.40
2017-09-02T22:21:47.369Z,6.50
2017-09-02T22:24:13.752Z,6.50
2017-09-02T22:26:39.989Z,6.60
2017-09-02T22:29:06.269Z,6.70
2017-09-02T22:31:32.588Z,6.80
2017-09-02T22:33:58.926Z,6.80
2017-09-02T22:36:25.266Z,6.70
2017-09-02T22:38:51.558Z,6.70
2017-09-02T22:41:17.846Z,6.70
2017-09-02T22:43:44.179Z,6.80
2017-09-02T22:46:10.432Z,6.90
2017-09-02T22:48:36.758Z,7.00
2017-09-02T22:51:03.016Z,7.00
2017-09-02T22:53:29.306Z,6.90
2017-09-02T22:55:55.699Z,7.10
2017-09-02T22:58:21.977Z,7.10
2017-09-02T23:00:48.352Z,7.00
2017-09-02T23:03:14.578Z,6.90
2017-09-02T23:05:40.892Z,6.80
2017-09-02T23:08:07.154Z,6.60
2017-09-02T23:10:33.562Z,6.50
2017-09-02T23:12:59.947Z,6.40
2017-09-02T23:15:26.404Z,6.40
2017-09-02T23:17:52.785Z,6.40
2017-09-02T23:20:19.125Z,6.30
2017-09-02T23:22:45.522Z,6.40
2017-09-02T23:25:11.832Z,6.40
2017-09-02T23:27:38.158Z,6.40
2017-09-02T23:30:04.681Z,6.30
2017-09-02T23:32:31.080Z,6.10
2017-09-02T23:34:57.333Z,6.10
2017-09-02T23:37:23.628Z,6.00
2017-09-02T23:39:49.884Z,5.80
2017-09-02T23:42:16.255Z,5.80
2017-09-02T23:44:42.580Z,5.80
2017-09-02T23:47:08.826Z,5.90
2017-09-02T23:49:35.283Z,5.70
2017-09-02T23:52:01.553Z,5.60
2017-09-02T23:54:27.879Z,5.60
2017-09-02T23:56:54.264Z,5.40
2017-09-02T23:59:20.501Z,5.40
